createdAt,value
2023-01-13T20:34:53.410Z,18.89
2023-01-13T20:37:19.936Z,19.18
2023-01-13T20:39:48.059Z,19.49
2023-01-13T20:42:29.571Z,19.73
2023-01-13T20:44:57.193Z,19.96
2023-01-13T20:47:24.463Z,20.16
2023-01-13T20:49:51.262Z,20.37
2023-01-13T20:52:17.860Z,20.56
2023-01-13T20:54:44.420Z,20.74
2023-01-13T20:57:11.818Z,20.88
2023-01-13T20:59:38.715Z,21.06
2023-01-13T21:02:07.710Z,21.16
2023-01-13T21:04:34.278Z,21.32
2023-01-13T21:07:00.823Z,21.39
2023-01-13T21:09:27.517Z,21.52
2023-01-13T21:12:32.559Z,21.60
2023-01-13T21:15:17.406Z,21.66
2023-01-13T21:18:03.272Z,21.66
2023-01-13T21:20:36.023Z,21.69
2023-01-13T21:23:03.711Z,21.73
2023-01-13T21:25:32.694Z,21.71
2023-01-13T21:28:11.469Z,21.73
2023-01-13T21:30:39.059Z,21.74
2023-01-13T21:33:06.346Z,21.73
2023-01-13T21:35:32.979Z,21.70
2023-01-13T21:37:59.704Z,21.70
2023-01-13T21:40:26.319Z,21.70
2023-01-13T21:43:11.400Z,21.69
2023-01-13T21:45:57.922Z,21.69
2023-01-13T21:48:24.663Z,21.67
2023-01-13T21:50:51.221Z,21.66
2023-01-13T21:53:17.731Z,21.63
2023-01-13T21:55:44.232Z,21.63
2023-01-13T21:58:13.981Z,21.59
2023-01-13T22:00:42.888Z,21.57
2023-01-13T22:03:11.453Z,21.57
2023-01-13T22:05:38.599Z,21.53
2023-01-13T22:08:06.231Z,21.53
2023-01-13T22:10:33.123Z,21.52
2023-01-13T22:13:21.370Z,21.50
2023-01-13T22:15:48.197Z,21.46
2023-01-13T22:18:14.871Z,21.43
2023-01-13T22:20:42.249Z,21.43
2023-01-13T22:23:08.794Z,21.39
2023-01-13T22:25:35.328Z,21.39
2023-01-13T22:28:05.927Z,21.35
2023-01-13T22:30:33.231Z,21.33
2023-01-13T22:33:00.206Z,21.33
2023-01-13T22:35:26.969Z,21.29
2023-01-13T22:37:53.459Z,21.29
2023-01-13T22:40:20.134Z,21.26
2023-01-13T22:42:46.753Z,21.26
2023-01-13T22:45:14.427Z,21.26
2023-01-13T22:47:41.062Z,21.22
2023-01-13T22:50:08.425Z,21.21
2023-01-13T22:52:35.172Z,21.19
2023-01-13T22:55:01.848Z,21.18
2023-01-13T22:57:46.618Z,21.16
2023-01-13T23:00:14.980Z,21.15
2023-01-13T23:02:41.989Z,21.15
2023-01-13T23:05:08.692Z,21.14
2023-01-13T23:07:35.641Z,21.12
2023-01-13T23:10:02.473Z,21.12
2023-01-13T23:12:29.027Z,21.08
2023-01-13T23:14:55.555Z,21.08
2023-01-13T23:17:22.255Z,21.04
2023-01-13T23:19:49.070Z,21.05
2023-01-13T23:22:15.614Z,21.06
2023-01-13T23:24:42.148Z,21.04
2023-01-13T23:27:08.658Z,21.04
2023-01-13T23:29:35.149Z,21.01
2023-01-13T23:32:01.668Z,21.01
2023-01-13T23:34:28.132Z,21.01
2023-01-13T23:36:55.190Z,20.99
2023-01-13T23:39:21.803Z,20.99
2023-01-13T23:41:48.326Z,20.99
2023-01-13T23:44:14.944Z,20.95
2023-01-13T23:46:41.463Z,20.95
2023-01-13T23:49:08.096Z,20.94
2023-01-13T23:51:34.676Z,20.94
2023-01-13T23:54:01.353Z,20.94
2023-01-13T23:56:30.702Z,20.94
2023-01-13T23:58:57.628Z,20.90
